createdAt,value
2022-10-09T05:51:46.314Z,70.65
2022-10-09T05:58:46.285Z,72.32
2022-10-09T06:13:00.834Z,73.09
2022-10-09T06:19:53.818Z,75.25
2022-10-09T06:26:42.353Z,74.00
2022-10-09T06:33:26.157Z,73.96
2022-10-09T06:40:13.656Z,74.84
2022-10-09T07:04:58.634Z,76.48
2022-10-09T08:04:38.819Z,71.13
2022-10-09T08:11:03.014Z,70.76
2022-10-09T08:17:47.737Z,71.39
2022-10-09T08:24:34.214Z,68.75
2022-10-09T08:30:59.439Z,68.13
2022-10-09T09:38:29.341Z,65.85
2022-10-09T09:57:54.285Z,62.29
2022-10-09T10:04:55.957Z,62.21
2022-10-09T10:12:01.936Z,61.58
2022-10-09T10:19:02.589Z,62.63
2022-10-09T10:25:58.975Z,62.93
2022-10-09T10:33:08.267Z,61.00
2022-10-09T10:40:02.755Z,61.41
2022-10-09T10:47:05.814Z,61.41
2022-10-09T11:01:11.217Z,58.44
2022-10-09T11:08:14.936Z,59.51
2022-10-09T11:15:04.870Z,58.73
2022-10-09T11:29:07.527Z,54.88
2022-10-09T11:42:55.810Z,56.40
2022-10-09T11:57:24.055Z,54.43
2022-10-09T12:04:05.250Z,54.99
2022-10-09T12:11:23.847Z,52.60
2022-10-09T12:47:22.083Z,46.65
2022-10-09T12:54:08.921Z,45.48
2022-10-09T13:01:03.305Z,45.35
2022-10-09T13:15:03.239Z,44.42
2022-10-09T13:28:57.637Z,41.71
2022-10-09T13:35:54.145Z,40.91
2022-10-09T13:42:37.264Z,41.81
2022-10-09T13:49:24.384Z,41.48
2022-10-09T14:03:40.035Z,40.53
2022-10-09T14:10:24.003Z,40.76
2022-10-09T14:17:13.030Z,38.75
2022-10-09T14:23:59.135Z,39.41
2022-10-09T14:30:50.189Z,39.44
2022-10-09T14:37:41.673Z,39.78
2022-10-09T14:44:22.838Z,40.35
2022-10-09T14:51:11.530Z,41.35
2022-10-09T14:58:04.521Z,41.47
2022-10-09T15:04:49.921Z,40.69
2022-10-09T15:11:41.998Z,40.60
2022-10-09T15:18:23.728Z,41.76
2022-10-09T15:24:56.009Z,41.89
2022-10-09T15:31:41.938Z,42.45
2022-10-09T15:38:38.531Z,46.17
2022-10-09T15:45:28.817Z,46.52
2022-10-09T15:52:17.406Z,46.86
2022-10-09T16:06:27.961Z,48.83
2022-10-09T16:26:43.811Z,52.32
2022-10-09T16:33:36.529Z,54.65
2022-10-09T16:47:23.926Z,58.73
2022-10-09T16:54:38.794Z,60.17
2022-10-09T17:08:33.065Z,63.16
2022-10-09T17:15:14.646Z,65.27
2022-10-09T17:30:07.862Z,67.91
2022-10-09T17:52:29.667Z,70.38
2022-10-09T18:06:51.694Z,70.81
2022-10-09T18:19:58.123Z,67.30
2022-10-09T18:33:19.910Z,65.94
2022-10-09T18:40:04.638Z,67.41
2022-10-09T18:46:48.654Z,68.77
2022-10-09T18:53:31.037Z,69.81
2022-10-09T19:00:13.095Z,71.05
2022-10-09T19:06:55.046Z,71.96
2022-10-09T19:13:40.039Z,72.52
2022-10-09T19:20:22.204Z,72.38
2022-10-09T19:27:04.754Z,72.56
2022-10-09T19:33:48.144Z,72.59
2022-10-09T19:40:32.171Z,73.15
2022-10-09T19:47:17.719Z,73.35
2022-10-09T19:54:00.168Z,72.89
2022-10-09T20:00:18.749Z,72.67
2022-10-09T20:06:43.002Z,72.50
2022-10-09T20:13:26.666Z,72.63
2022-10-09T20:20:10.546Z,72.63
2022-10-09T20:27:02.208Z,72.21
2022-10-09T20:33:47.459Z,72.32
2022-10-09T20:40:33.973Z,72.16
2022-10-09T20:47:15.930Z,72.20
2022-10-09T20:53:57.900Z,72.32
2022-10-09T21:00:40.142Z,72.18
2022-10-09T21:07:21.899Z,72.34
2022-10-09T21:14:04.130Z,72.95
2022-10-09T21:20:50.052Z,73.31
2022-10-09T21:27:33.005Z,73.98
2022-10-09T21:34:15.991Z,74.60
2022-10-09T21:40:54.250Z,74.55
2022-10-09T21:47:15.730Z,75.02
2022-10-09T21:53:57.298Z,75.43
2022-10-09T22:00:40.586Z,75.76
2022-10-09T22:07:22.302Z,75.48
2022-10-09T22:14:03.634Z,75.46
2022-10-09T22:20:46.170Z,75.93
2022-10-09T22:27:27.593Z,76.38
2022-10-09T22:34:09.279Z,76.41
2022-10-09T22:40:50.426Z,76.40
2022-10-09T22:47:32.273Z,76.36
2022-10-09T22:54:14.005Z,76.04
2022-10-09T23:00:35.612Z,76.33
2022-10-09T23:07:17.361Z,76.74
2022-10-09T23:13:58.958Z,77.13
2022-10-09T23:20:41.651Z,77.47
2022-10-09T23:27:23.101Z,77.81
2022-10-09T23:34:04.729Z,77.86
2022-10-09T23:40:46.581Z,77.54
2022-10-09T23:47:28.401Z,77.97
2022-10-09T23:54:10.029Z,77.87
